createdAt,value
2019-06-01T00:01:19.655Z,101051.44
2019-06-01T00:02:57.603Z,101052.28
2019-06-01T00:04:33.192Z,101053.40
2019-06-01T00:06:09.747Z,101054.00
2019-06-01T00:07:46.979Z,101053.14
2019-06-01T00:09:23.378Z,101060.15
2019-06-01T00:10:58.890Z,101065.51
2019-06-01T00:12:35.181Z,101065.53
2019-06-01T00:14:10.766Z,101058.29
2019-06-01T00:15:48.266Z,101061.66
2019-06-01T00:17:23.871Z,101058.60
2019-06-01T00:19:00.170Z,101064.75
2019-06-01T00:20:35.684Z,101065.62
2019-06-01T00:22:11.996Z,101063.67
2019-06-01T00:23:48.675Z,101061.45
2019-06-01T00:25:25.103Z,101063.11
2019-06-01T00:27:00.621Z,101063.66
2019-06-01T00:28:37.001Z,101057.80
2019-06-01T00:30:26.121Z,101058.95
2019-06-01T00:31:52.118Z,101062.28
2019-06-01T00:33:27.821Z,101061.45
2019-06-01T00:35:04.391Z,101065.95
2019-06-01T00:36:41.483Z,101062.88
2019-06-01T00:38:17.892Z,101065.39
2019-06-01T00:39:53.444Z,101066.50
2019-06-01T00:41:29.838Z,101062.33
2019-06-01T00:43:05.349Z,101061.52
2019-06-01T00:44:42.188Z,101058.16
2019-06-01T00:46:18.036Z,101060.95
2019-06-01T00:47:55.410Z,101059.03
2019-06-01T00:49:30.928Z,101056.53
2019-06-01T00:51:07.490Z,101061.84
2019-06-01T00:52:43.041Z,101058.19
2019-06-01T00:54:19.295Z,101059.59
2019-06-01T00:55:54.807Z,101062.13
2019-06-01T00:57:31.107Z,101058.77
2019-06-01T00:59:06.632Z,101062.95
2019-06-01T01:00:45.572Z,101065.75
2019-06-01T01:02:20.746Z,101063.78
2019-06-01T01:03:57.045Z,101059.89
2019-06-01T01:05:32.953Z,101063.53
2019-06-01T01:07:09.394Z,101061.00
2019-06-01T01:08:45.218Z,101061.58
2019-06-01T01:10:21.753Z,101062.97
2019-06-01T01:11:57.271Z,101066.06
2019-06-01T01:13:33.571Z,101068.29
2019-06-01T01:15:09.382Z,101061.31
2019-06-01T01:16:45.738Z,101063.28
2019-06-01T01:18:21.258Z,101060.78
2019-06-01T01:19:57.614Z,101063.02
2019-06-01T01:21:33.297Z,101066.09
2019-06-01T01:23:10.727Z,101059.70
2019-06-01T01:24:46.357Z,101059.70
2019-06-01T01:26:22.846Z,101055.77
2019-06-01T01:27:58.470Z,101052.16
2019-06-01T01:29:35.738Z,101055.25
2019-06-01T01:31:14.220Z,101053.87
2019-06-01T01:32:49.692Z,101054.98
2019-06-01T01:34:25.213Z,101063.65
2019-06-01T01:36:01.514Z,101057.78
2019-06-01T01:37:37.026Z,101060.58
2019-06-01T01:39:13.324Z,101059.76
2019-06-01T01:40:49.962Z,101060.87
2019-06-01T01:42:26.422Z,101056.98
2019-06-01T01:44:01.957Z,101056.41
2019-06-01T01:45:38.242Z,101056.41
2019-06-01T01:47:14.419Z,101056.12
2019-06-01T01:48:52.086Z,101053.05
2019-06-01T01:50:29.890Z,101044.97
2019-06-01T01:52:06.227Z,101049.45
2019-06-01T01:53:41.750Z,101051.14
2019-06-01T01:55:18.491Z,101048.35
2019-06-01T01:56:56.139Z,101047.53
2019-06-01T01:58:32.800Z,101053.11
2019-06-01T02:00:12.462Z,101052.26
2019-06-01T02:01:48.764Z,101046.38
2019-06-01T02:03:25.290Z,101047.53
2019-06-01T02:05:02.198Z,101051.72
2019-06-01T02:06:37.793Z,101051.44
2019-06-01T02:08:14.463Z,101056.44
2019-06-01T02:09:51.083Z,101057.84
2019-06-01T02:11:28.483Z,101049.19
2019-06-01T02:13:04.269Z,101055.05
2019-06-01T02:14:40.594Z,101052.26
2019-06-01T02:16:17.350Z,101051.72
2019-06-01T02:17:53.963Z,101050.57
2019-06-01T02:19:29.520Z,101048.63
2019-06-01T02:21:05.886Z,101045.84
2019-06-01T02:22:41.407Z,101049.45
2019-06-01T02:24:18.677Z,101047.53
2019-06-01T02:25:54.870Z,101042.48
2019-06-01T02:27:31.218Z,101045.86
2019-06-01T02:29:06.754Z,101045.58
2019-06-01T02:30:43.071Z,101047.80
2019-06-01T02:32:18.576Z,101049.20
2019-06-01T02:33:56.315Z,101046.16
2019-06-01T02:35:32.170Z,101047.27
2019-06-01T02:37:08.506Z,101044.19
2019-06-01T02:38:44.018Z,101042.53
2019-06-01T02:40:21.404Z,101041.14
2019-06-01T02:41:56.930Z,101041.70
2019-06-01T02:43:33.556Z,101039.20
2019-06-01T02:45:13.733Z,101040.85
2019-06-01T02:46:50.288Z,101037.24
2019-06-01T02:48:25.818Z,101038.36
2019-06-01T02:50:04.295Z,101038.93
2019-06-01T02:51:39.566Z,101036.96
2019-06-01T02:53:15.875Z,101037.81
2019-06-01T02:54:51.477Z,101042.82
2019-06-01T02:56:27.800Z,101042.25
2019-06-01T02:58:04.364Z,101044.78
2019-06-01T02:59:40.785Z,101045.88
2019-06-01T03:01:34.954Z,101040.02
2019-06-01T03:03:11.508Z,101039.45
2019-06-01T03:04:48.343Z,101030.56
2019-06-01T03:06:25.197Z,101034.47
2019-06-01T03:08:01.387Z,101035.86
2019-06-01T03:09:39.473Z,101040.05
2019-06-01T03:11:17.740Z,101044.51
2019-06-01T03:12:58.084Z,101046.19
2019-06-01T03:14:35.290Z,101039.45
2019-06-01T03:16:15.364Z,101046.72
2019-06-01T03:17:52.596Z,101047.57
2019-06-01T03:19:31.028Z,101039.45
2019-06-01T03:21:08.150Z,101046.19
2019-06-01T03:22:44.680Z,101044.80
2019-06-01T03:24:25.689Z,101045.61
2019-06-01T03:26:04.274Z,101046.44
2019-06-01T03:27:42.410Z,101041.42
2019-06-01T03:29:21.737Z,101044.23
2019-06-01T03:30:57.443Z,101036.42
2019-06-01T03:32:37.077Z,101040.05
2019-06-01T03:34:12.152Z,101039.75
2019-06-01T03:35:49.676Z,101035.56
2019-06-01T03:37:25.196Z,101039.47
2019-06-01T03:39:02.104Z,101042.83
2019-06-01T03:40:39.188Z,101039.22
2019-06-01T03:42:15.451Z,101046.73
2019-06-01T03:43:52.203Z,101047.02
2019-06-01T03:45:28.646Z,101042.00
2019-06-01T03:47:04.188Z,101042.25
2019-06-01T03:48:41.742Z,101045.02
2019-06-01T03:50:18.494Z,101040.83
2019-06-01T03:51:54.798Z,101043.06
2019-06-01T03:53:30.346Z,101048.06
2019-06-01T03:55:08.454Z,101038.29
2019-06-01T03:56:43.986Z,101042.46
2019-06-01T03:58:20.390Z,101039.08
2019-06-01T03:59:55.912Z,101041.30
2019-06-01T04:01:32.222Z,101043.79
2019-06-01T04:03:09.119Z,101044.88
2019-06-01T04:04:45.955Z,101042.87
2019-06-01T04:06:23.104Z,101048.17
2019-06-01T04:07:59.492Z,101048.14
2019-06-01T04:09:35.009Z,101049.75
2019-06-01T04:11:11.775Z,101051.11
2019-06-01T04:12:47.792Z,101048.02
2019-06-01T04:14:24.155Z,101047.98
2019-06-01T04:15:59.672Z,101048.79
2019-06-01T04:17:35.968Z,101047.05
2019-06-01T04:19:12.226Z,101043.36
2019-06-01T04:20:48.547Z,101050.58
2019-06-01T04:22:25.718Z,101048.59
2019-06-01T04:24:02.002Z,101053.27
2019-06-01T04:25:37.894Z,101052.39
2019-06-01T04:27:17.666Z,101052.88
2019-06-01T04:28:55.131Z,101049.17
2019-06-01T04:30:31.980Z,101049.89
2019-06-01T04:32:08.645Z,101050.39
2019-06-01T04:33:45.003Z,101049.48
2019-06-01T04:35:21.767Z,101051.89
2019-06-01T04:36:58.065Z,101054.30
2019-06-01T04:38:33.578Z,101052.50
2019-06-01T04:40:10.024Z,101055.79
2019-06-01T04:41:45.539Z,101058.77
2019-06-01T04:43:22.734Z,101054.44
2019-06-01T04:44:58.256Z,101064.09
2019-06-01T04:46:34.551Z,101062.52
2019-06-01T04:48:10.627Z,101063.81
2019-06-01T04:49:48.023Z,101067.90
2019-06-01T04:51:23.540Z,101064.95
2019-06-01T04:53:00.131Z,101065.64
2019-06-01T04:54:35.733Z,101064.36
2019-06-01T04:56:13.080Z,101067.58
2019-06-01T04:57:48.728Z,101063.48
2019-06-01T04:59:25.011Z,101062.49
2019-06-01T05:01:00.525Z,101067.69
2019-06-01T05:02:36.845Z,101072.53
2019-06-01T05:04:13.295Z,101067.09
2019-06-01T05:05:49.899Z,101062.44
2019-06-01T05:07:25.546Z,101062.88
2019-06-01T05:09:02.086Z,101061.88
2019-06-01T05:10:37.674Z,101053.63
2019-06-01T05:12:14.139Z,101062.98
2019-06-01T05:13:49.659Z,101059.75
2019-06-01T05:15:26.206Z,101062.96
2019-06-01T05:17:02.003Z,101065.88
2019-06-01T05:18:43.472Z,101060.09
2019-06-01T05:20:20.922Z,101065.73
2019-06-01T05:21:56.425Z,101067.17
2019-06-01T05:23:32.729Z,101062.34
2019-06-01T05:25:09.112Z,101065.68
2019-06-01T05:26:45.504Z,101061.52
2019-06-01T05:28:21.026Z,101056.47
2019-06-01T05:29:57.379Z,101062.42
2019-06-01T05:31:32.879Z,101056.80
2019-06-01T05:33:26.562Z,101050.59
2019-06-01T05:34:46.657Z,101045.77
2019-06-01T05:36:22.951Z,101054.45
2019-06-01T05:37:58.477Z,101053.36
2019-06-01T05:39:34.780Z,101060.11
2019-06-01T05:41:11.949Z,101056.50
2019-06-01T05:42:48.954Z,101052.88
2019-06-01T05:44:24.495Z,101060.21
2019-06-01T05:46:00.769Z,101058.25
2019-06-01T05:47:36.307Z,101052.05
2019-06-01T05:49:13.254Z,101059.56
2019-06-01T05:50:49.883Z,101056.09
2019-06-01T05:52:26.181Z,101052.55
2019-06-01T05:54:02.725Z,101056.28
2019-06-01T05:55:39.953Z,101051.08
2019-06-01T05:57:16.718Z,101051.67
2019-06-01T05:58:53.126Z,101048.47
2019-06-01T06:00:43.095Z,101049.52
2019-06-01T06:02:19.611Z,101049.16
2019-06-01T06:03:57.878Z,101053.47
2019-06-01T06:05:34.305Z,101056.09
2019-06-01T06:07:10.796Z,101052.62
2019-06-01T06:08:47.107Z,101054.16
2019-06-01T06:10:22.623Z,101046.87
2019-06-01T06:11:58.944Z,101053.92
2019-06-01T06:13:34.889Z,101055.09
2019-06-01T06:15:13.476Z,101053.77
2019-06-01T06:16:49.218Z,101051.55
2019-06-01T06:18:25.516Z,101058.23
2019-06-01T06:20:01.056Z,101054.72
2019-06-01T06:21:37.588Z,101058.15
2019-06-01T06:23:14.033Z,101053.56
2019-06-01T06:24:50.505Z,101049.69
2019-06-01T06:26:26.683Z,101051.11
2019-06-01T06:28:02.970Z,101058.16
2019-06-01T06:29:38.514Z,101052.69
2019-06-01T06:31:15.070Z,101051.50
2019-06-01T06:32:50.748Z,101047.91
2019-06-01T06:34:27.405Z,101058.01
2019-06-01T06:36:02.963Z,101050.37
2019-06-01T06:37:42.249Z,101055.19
2019-06-01T06:39:17.868Z,101049.97
2019-06-01T06:40:54.671Z,101050.82
2019-06-01T06:42:30.515Z,101047.37
2019-06-01T06:44:06.895Z,101056.06
2019-06-01T06:45:42.412Z,101046.53
2019-06-01T06:47:18.830Z,101052.75
2019-06-01T06:48:54.375Z,101047.59
2019-06-01T06:50:31.112Z,101045.00
2019-06-01T06:52:06.645Z,101041.89
2019-06-01T06:53:42.940Z,101042.84
2019-06-01T06:55:18.482Z,101037.27
2019-06-01T06:56:54.776Z,101041.66
2019-06-01T06:58:31.151Z,101039.92
2019-06-01T07:00:09.158Z,101039.84
2019-06-01T07:01:44.668Z,101043.62
2019-06-01T07:03:21.135Z,101043.91
2019-06-01T07:04:56.658Z,101033.24
2019-06-01T07:06:32.956Z,101041.46
2019-06-01T07:08:08.483Z,101036.48
2019-06-01T07:09:44.826Z,101038.95
2019-06-01T07:11:21.197Z,101044.72
2019-06-01T07:12:57.683Z,101041.55
2019-06-01T07:14:33.225Z,101040.81
2019-06-01T07:16:09.533Z,101046.24
2019-06-01T07:17:45.149Z,101045.56
2019-06-01T07:19:21.703Z,101045.85
2019-06-01T07:20:57.516Z,101042.27
2019-06-01T07:22:33.877Z,101040.03
2019-06-01T07:24:09.380Z,101045.07
2019-06-01T07:25:45.776Z,101043.91
2019-06-01T07:27:22.029Z,101038.19
2019-06-01T07:28:58.373Z,101041.63
2019-06-01T07:30:49.872Z,101037.78
2019-06-01T07:32:15.013Z,101042.88
2019-06-01T07:33:50.523Z,101038.59
2019-06-01T07:35:28.368Z,101039.80
2019-06-01T07:37:04.079Z,101038.41
2019-06-01T07:38:40.383Z,101036.80
2019-06-01T07:40:18.030Z,101036.80
2019-06-01T07:41:54.375Z,101040.02
2019-06-01T07:43:29.941Z,101037.39
2019-06-01T07:45:08.577Z,101030.67
2019-06-01T07:46:44.092Z,101034.97
2019-06-01T07:48:20.952Z,101038.22
2019-06-01T07:49:56.584Z,101041.45
2019-06-01T07:51:32.898Z,101037.97
2019-06-01T07:53:08.405Z,101039.58
2019-06-01T07:54:45.871Z,101038.73
2019-06-01T07:56:22.588Z,101036.81
2019-06-01T07:57:59.023Z,101039.59
2019-06-01T07:59:34.614Z,101039.55
2019-06-01T08:01:11.268Z,101037.71
2019-06-01T08:02:46.964Z,101039.33
2019-06-01T08:04:24.701Z,101036.91
2019-06-01T08:06:00.890Z,101034.10
2019-06-01T08:07:37.200Z,101034.15
2019-06-01T08:09:12.719Z,101028.33
2019-06-01T08:10:49.035Z,101029.21
2019-06-01T08:12:25.464Z,101026.43
2019-06-01T08:14:01.850Z,101023.83
2019-06-01T08:15:37.410Z,101022.91
2019-06-01T08:17:14.032Z,101018.09
2019-06-01T08:18:53.104Z,101014.71
2019-06-01T08:20:30.336Z,101024.21
2019-06-01T08:22:07.052Z,101017.35
2019-06-01T08:23:43.384Z,101017.84
2019-06-01T08:25:18.906Z,101015.88
2019-06-01T08:26:55.245Z,101016.52
2019-06-01T08:28:30.965Z,101020.27
2019-06-01T08:30:09.528Z,101018.86
2019-06-01T08:31:45.353Z,101019.51
2019-06-01T08:33:24.881Z,101011.73
2019-06-01T08:35:08.683Z,101010.53
2019-06-01T08:36:37.298Z,101011.77
2019-06-01T08:38:13.173Z,101006.84
2019-06-01T08:39:49.487Z,101007.46
2019-06-01T08:41:25.584Z,101012.78
2019-06-01T08:43:01.942Z,101005.40
2019-06-01T08:44:37.456Z,101008.05
2019-06-01T08:46:13.751Z,101006.21
2019-06-01T08:47:49.286Z,101004.83
2019-06-01T08:49:25.982Z,101003.59
2019-06-01T08:51:01.534Z,101004.38
2019-06-01T08:52:37.831Z,101000.92
2019-06-01T08:54:13.344Z,101007.86
2019-06-01T08:55:49.646Z,101000.09
2019-06-01T08:57:26.117Z,101003.95
2019-06-01T08:59:02.557Z,100998.79
2019-06-01T09:00:38.111Z,100999.15
2019-06-01T09:02:14.434Z,100995.39
2019-06-01T09:03:49.952Z,100993.25
2019-06-01T09:05:27.972Z,100989.31
2019-06-01T09:07:03.727Z,100986.34
2019-06-01T09:08:40.019Z,100988.52
2019-06-01T09:10:15.678Z,100994.62
2019-06-01T09:11:51.988Z,100988.42
2019-06-01T09:13:27.505Z,100988.59
2019-06-01T09:15:04.106Z,100981.09
2019-06-01T09:16:40.020Z,100982.58
2019-06-01T09:18:16.322Z,100985.17
2019-06-01T09:19:52.122Z,100984.18
2019-06-01T09:21:29.416Z,100985.86
2019-06-01T09:23:05.351Z,100979.77
2019-06-01T09:24:41.924Z,100972.83
2019-06-01T09:26:17.451Z,100984.45
2019-06-01T09:27:53.760Z,100976.39
2019-06-01T09:29:29.977Z,100979.42
2019-06-01T09:31:06.454Z,100985.98
2019-06-01T09:32:42.439Z,100979.20
2019-06-01T09:34:18.754Z,100982.32
2019-06-01T09:35:56.338Z,100982.43
2019-06-01T09:37:35.020Z,100981.56
2019-06-01T09:39:10.622Z,100982.72
2019-06-01T09:40:46.939Z,100982.83
2019-06-01T09:42:22.777Z,100980.91
2019-06-01T09:43:59.087Z,100990.27
2019-06-01T09:45:34.629Z,100980.47
2019-06-01T09:47:10.908Z,100976.62
2019-06-01T09:48:46.430Z,100982.14
2019-06-01T09:50:22.721Z,100978.42
2019-06-01T09:51:58.236Z,100981.73
2019-06-01T09:53:35.971Z,100984.78
2019-06-01T09:55:11.925Z,100979.83
2019-06-01T09:56:48.229Z,100979.37
2019-06-01T09:58:23.756Z,100981.01
2019-06-01T10:00:00.101Z,100980.80
2019-06-01T10:01:36.698Z,100977.82
2019-06-01T10:03:13.014Z,100979.33
2019-06-01T10:04:48.512Z,100975.78
2019-06-01T10:06:24.808Z,100970.94
2019-06-01T10:08:00.429Z,100972.27
2019-06-01T10:09:37.749Z,100970.44
2019-06-01T10:11:13.276Z,100967.62
2019-06-01T10:12:49.583Z,100970.03
2019-06-01T10:14:25.098Z,100967.91
2019-06-01T10:16:01.744Z,100963.63
2019-06-01T10:17:37.344Z,100970.01
2019-06-01T10:19:13.653Z,100959.72
2019-06-01T10:20:49.193Z,100958.42
2019-06-01T10:22:25.488Z,100960.16
2019-06-01T10:24:01.026Z,100954.84
2019-06-01T10:25:38.534Z,100949.95
2019-06-01T10:27:14.120Z,100943.60
2019-06-01T10:28:50.434Z,100937.11
2019-06-01T10:30:25.988Z,100943.76
2019-06-01T10:32:02.274Z,100943.21
2019-06-01T10:33:38.986Z,100938.61
2019-06-01T10:35:17.376Z,100936.13
2019-06-01T10:36:52.897Z,100943.42
2019-06-01T10:38:29.220Z,100935.50
2019-06-01T10:40:08.936Z,100936.15
2019-06-01T10:41:46.475Z,100936.39
2019-06-01T10:43:22.001Z,100931.53
2019-06-01T10:44:58.301Z,100934.97
2019-06-01T10:46:33.962Z,100932.80
2019-06-01T10:48:10.326Z,100928.82
2019-06-01T10:49:45.957Z,100929.45
2019-06-01T10:51:22.266Z,100931.11
2019-06-01T10:52:57.795Z,100923.90
2019-06-01T10:54:34.339Z,100923.42
2019-06-01T10:56:09.899Z,100923.11
2019-06-01T10:57:47.435Z,100918.33
2019-06-01T10:59:22.956Z,100916.02
2019-06-01T11:00:59.271Z,100911.50
2019-06-01T11:02:34.872Z,100910.02
2019-06-01T11:04:11.161Z,100912.39
2019-06-01T11:05:46.679Z,100912.58
2019-06-01T11:07:23.282Z,100916.03
2019-06-01T11:08:58.860Z,100908.45
2019-06-01T11:10:35.155Z,100898.02
2019-06-01T11:12:10.678Z,100916.52
2019-06-01T11:13:47.959Z,100915.80
2019-06-01T11:15:23.471Z,100910.61
2019-06-01T11:17:00.357Z,100908.52
2019-06-01T11:18:37.346Z,100908.95
2019-06-01T11:20:14.075Z,100909.44
2019-06-01T11:21:49.842Z,100910.75
2019-06-01T11:23:26.152Z,100913.27
2019-06-01T11:25:01.701Z,100902.95
2019-06-01T11:26:39.711Z,100909.53
2019-06-01T11:28:16.283Z,100903.67
2019-06-01T11:29:52.619Z,100901.25
2019-06-01T11:31:28.130Z,100900.28
2019-06-01T11:33:04.674Z,100892.91
2019-06-01T11:34:40.332Z,100889.59
2019-06-01T11:36:17.155Z,100884.66
2019-06-01T11:37:52.668Z,100890.14
2019-06-01T11:39:29.049Z,100891.92
2019-06-01T11:41:04.565Z,100898.85
2019-06-01T11:42:41.037Z,100890.25
2019-06-01T11:44:16.555Z,100888.02
2019-06-01T11:45:52.860Z,100889.25
2019-06-01T11:47:28.531Z,100888.23
2019-06-01T11:49:04.843Z,100883.97
2019-06-01T11:50:41.204Z,100883.59
2019-06-01T11:52:17.529Z,100885.05
2019-06-01T11:53:53.311Z,100886.30
2019-06-01T11:55:29.872Z,100882.44
2019-06-01T11:57:05.382Z,100880.64
2019-06-01T11:58:41.679Z,100882.91
2019-06-01T12:00:19.204Z,100883.14
2019-06-01T12:01:55.851Z,100879.90
2019-06-01T12:03:31.378Z,100884.37
2019-06-01T12:05:09.988Z,100877.84
2019-06-01T12:06:46.738Z,100875.22
2019-06-01T12:08:23.044Z,100874.03
2019-06-01T12:09:58.568Z,100868.95
2019-06-01T12:11:35.726Z,100874.14
2019-06-01T12:13:11.317Z,100871.92
2019-06-01T12:14:47.772Z,100875.59
2019-06-01T12:16:23.687Z,100868.05
2019-06-01T12:17:59.995Z,100869.08
2019-06-01T12:19:36.527Z,100864.42
2019-06-01T12:21:12.896Z,100856.64
2019-06-01T12:22:48.440Z,100866.45
2019-06-01T12:24:25.845Z,100859.27
2019-06-01T12:26:01.444Z,100859.28
2019-06-01T12:27:39.581Z,100862.12
2019-06-01T12:29:15.585Z,100858.64
2019-06-01T12:30:51.893Z,100850.25
2019-06-01T12:32:27.425Z,100850.24
2019-06-01T12:34:04.040Z,100840.17
2019-06-01T12:35:39.871Z,100844.41
2019-06-01T12:37:34.131Z,100836.19
2019-06-01T12:38:53.938Z,100837.37
2019-06-01T12:40:30.245Z,100838.37
2019-06-01T12:42:05.851Z,100833.41
2019-06-01T12:43:43.584Z,100835.40
2019-06-01T12:45:23.128Z,100835.56
2019-06-01T12:46:59.232Z,100833.02
2019-06-01T12:48:34.754Z,100834.99
2019-06-01T12:50:11.093Z,100822.20
2019-06-01T12:51:47.057Z,100831.58
2019-06-01T12:53:23.483Z,100821.30
2019-06-01T12:54:59.001Z,100822.69
2019-06-01T12:56:35.647Z,100822.41
2019-06-01T12:58:11.169Z,100816.61
2019-06-01T12:59:47.680Z,100816.92
2019-06-01T13:01:23.153Z,100813.13
2019-06-01T13:03:07.071Z,100821.05
2019-06-01T13:04:36.684Z,100816.87
2019-06-01T13:06:13.009Z,100816.61
2019-06-01T13:07:58.623Z,100814.27
2019-06-01T13:09:28.091Z,100807.84
2019-06-01T13:11:03.601Z,100812.12
2019-06-01T13:12:41.076Z,100798.72
2019-06-01T13:14:16.642Z,100797.63
2019-06-01T13:15:52.947Z,100801.06
2019-06-01T13:17:28.469Z,100796.69
2019-06-01T13:19:05.041Z,100788.21
2019-06-01T13:20:41.430Z,100787.73
2019-06-01T13:22:17.833Z,100791.80
2019-06-01T13:23:53.360Z,100788.53
2019-06-01T13:25:29.659Z,100782.98
2019-06-01T13:27:05.526Z,100781.94
2019-06-01T13:28:41.814Z,100777.14
2019-06-01T13:30:17.401Z,100766.55
2019-06-01T13:31:53.700Z,100765.31
2019-06-01T13:33:29.523Z,100763.88
2019-06-01T13:35:10.367Z,100760.12
2019-06-01T13:36:46.549Z,100758.92
2019-06-01T13:38:22.970Z,100759.64
2019-06-01T13:39:58.530Z,100756.66
2019-06-01T13:41:34.813Z,100752.86
2019-06-01T13:43:10.333Z,100751.50
2019-06-01T13:44:47.372Z,100749.51
2019-06-01T13:46:22.945Z,100745.60
2019-06-01T13:47:59.230Z,100738.52
2019-06-01T13:49:34.744Z,100746.86
2019-06-01T13:51:11.075Z,100747.00
2019-06-01T13:52:47.858Z,100744.36
2019-06-01T13:54:25.410Z,100747.50
2019-06-01T13:56:00.962Z,100749.41
2019-06-01T13:57:39.634Z,100747.00
2019-06-01T13:59:14.467Z,100741.48
2019-06-01T14:00:51.631Z,100744.63
2019-06-01T14:02:28.005Z,100738.13
2019-06-01T14:04:04.316Z,100741.33
2019-06-01T14:05:39.835Z,100744.73
2019-06-01T14:07:16.140Z,100742.57
2019-06-01T14:08:53.175Z,100737.73
2019-06-01T14:10:29.566Z,100738.45
2019-06-01T14:12:05.505Z,100737.34
2019-06-01T14:13:41.800Z,100732.16
2019-06-01T14:15:24.064Z,100740.42
2019-06-01T14:17:00.337Z,100736.66
2019-06-01T14:18:35.957Z,100735.27
2019-06-01T14:20:12.499Z,100727.77
2019-06-01T14:21:48.045Z,100735.13
2019-06-01T14:23:24.431Z,100735.77
2019-06-01T14:25:12.765Z,100731.44
2019-06-01T14:26:37.931Z,100730.40
2019-06-01T14:28:13.442Z,100733.21
2019-06-01T14:29:50.247Z,100724.97
2019-06-01T14:31:25.967Z,100724.91
2019-06-01T14:33:02.285Z,100726.83
2019-06-01T14:34:37.839Z,100724.69
2019-06-01T14:36:14.124Z,100726.62
2019-06-01T14:37:51.238Z,100722.03
2019-06-01T14:39:27.705Z,100725.59
2019-06-01T14:41:03.266Z,100725.49
2019-06-01T14:42:39.619Z,100728.45
2019-06-01T14:44:15.155Z,100726.06
2019-06-01T14:45:51.662Z,100729.05
2019-06-01T14:47:27.567Z,100722.85
2019-06-01T14:49:04.138Z,100728.87
2019-06-01T14:50:39.977Z,100720.62
2019-06-01T14:52:16.287Z,100720.16
2019-06-01T14:53:51.795Z,100711.09
2019-06-01T14:55:28.104Z,100713.09
2019-06-01T14:57:03.907Z,100712.86
2019-06-01T14:58:40.342Z,100708.53
2019-06-01T15:00:16.399Z,100699.13
2019-06-01T15:01:52.693Z,100710.03
2019-06-01T15:03:28.216Z,100703.66
2019-06-01T15:05:06.758Z,100710.53
2019-06-01T15:06:42.949Z,100712.08
2019-06-01T15:08:20.880Z,100706.50
2019-06-01T15:09:56.699Z,100708.88
2019-06-01T15:11:33.465Z,100709.58
2019-06-01T15:13:08.984Z,100705.42
2019-06-01T15:14:45.277Z,100706.20
2019-06-01T15:16:20.867Z,100701.04
2019-06-01T15:17:57.582Z,100702.05
2019-06-01T15:19:33.498Z,100701.98
2019-06-01T15:21:09.814Z,100695.66
2019-06-01T15:22:45.335Z,100693.20
2019-06-01T15:24:21.639Z,100694.17
2019-06-01T15:25:58.136Z,100697.41
2019-06-01T15:27:34.773Z,100695.31
2019-06-01T15:29:10.559Z,100698.72
2019-06-01T15:30:48.624Z,100690.73
2019-06-01T15:32:26.752Z,100690.67
2019-06-01T15:34:04.297Z,100692.27
2019-06-01T15:35:39.821Z,100688.74
2019-06-01T15:37:16.127Z,100688.30
2019-06-01T15:38:51.892Z,100680.92
2019-06-01T15:40:28.622Z,100689.78
2019-06-01T15:42:04.228Z,100691.14
2019-06-01T15:43:40.537Z,100689.66
2019-06-01T15:45:16.491Z,100686.17
2019-06-01T15:46:53.678Z,100691.21
2019-06-01T15:48:29.418Z,100688.72
2019-06-01T15:50:11.138Z,100686.49
2019-06-01T15:51:47.765Z,100684.42
2019-06-01T15:53:23.299Z,100681.52
2019-06-01T15:55:00.495Z,100681.67
2019-06-01T15:56:37.123Z,100677.57
2019-06-01T15:58:13.445Z,100679.15
2019-06-01T15:59:48.960Z,100671.01
2019-06-01T16:01:26.429Z,100676.70
2019-06-01T16:03:03.164Z,100666.52
2019-06-01T16:04:39.517Z,100668.33
2019-06-01T16:06:15.024Z,100667.29
2019-06-01T16:07:51.331Z,100669.52
2019-06-01T16:09:41.593Z,100668.09
2019-06-01T16:11:06.508Z,100665.41
2019-06-01T16:12:42.254Z,100670.06
2019-06-01T16:14:18.583Z,100665.95
2019-06-01T16:15:55.161Z,100666.67
2019-06-01T16:17:31.980Z,100663.02
2019-06-01T16:19:08.126Z,100664.83
2019-06-01T16:20:45.492Z,100669.47
2019-06-01T16:22:21.045Z,100667.83
2019-06-01T16:23:58.318Z,100666.17
2019-06-01T16:25:33.838Z,100665.75
2019-06-01T16:27:10.136Z,100661.84
2019-06-01T16:28:45.699Z,100660.39
2019-06-01T16:30:22.435Z,100663.00
2019-06-01T16:31:58.659Z,100658.28
2019-06-01T16:33:34.966Z,100660.47
2019-06-01T16:35:10.648Z,100657.17
2019-06-01T16:36:46.938Z,100660.17
2019-06-01T16:38:22.491Z,100653.07
2019-06-01T16:40:04.398Z,100658.10
2019-06-01T16:41:36.037Z,100652.80
2019-06-01T16:43:12.335Z,100655.42
2019-06-01T16:44:48.119Z,100656.61
2019-06-01T16:46:24.406Z,100648.47
2019-06-01T16:48:00.152Z,100649.23
2019-06-01T16:49:36.468Z,100651.84
2019-06-01T16:51:11.980Z,100648.55
2019-06-01T16:52:48.300Z,100648.70
2019-06-01T16:54:25.176Z,100643.41
2019-06-01T16:56:02.015Z,100640.11
2019-06-01T16:57:37.661Z,100636.19
2019-06-01T16:59:13.965Z,100633.86
2019-06-01T17:00:49.663Z,100637.43
2019-06-01T17:02:25.967Z,100647.91
2019-06-01T17:04:02.735Z,100640.27
2019-06-01T17:05:40.111Z,100644.26
2019-06-01T17:07:17.411Z,100644.41
2019-06-01T17:08:53.719Z,100641.72
2019-06-01T17:10:29.673Z,100645.52
2019-06-01T17:12:07.181Z,100644.48
2019-06-01T17:13:42.818Z,100645.90
2019-06-01T17:15:19.369Z,100643.45
2019-06-01T17:16:55.188Z,100646.66
2019-06-01T17:18:31.512Z,100645.97
2019-06-01T17:20:28.001Z,100639.25
2019-06-01T17:22:05.505Z,100640.45
2019-06-01T17:23:41.275Z,100644.34
2019-06-01T17:25:17.675Z,100643.08
2019-06-01T17:26:53.277Z,100641.22
2019-06-01T17:28:29.698Z,100641.80
2019-06-01T17:30:09.895Z,100641.57
2019-06-01T17:31:54.038Z,100643.98
2019-06-01T17:33:21.816Z,100644.13
2019-06-01T17:34:58.594Z,100640.56
2019-06-01T17:36:34.106Z,100644.27
2019-06-01T17:38:12.216Z,100643.78
2019-06-01T17:39:47.834Z,100637.88
2019-06-01T17:41:24.126Z,100639.23
2019-06-01T17:43:01.214Z,100639.01
2019-06-01T17:44:37.762Z,100639.97
2019-06-01T17:46:13.288Z,100636.09
2019-06-01T17:47:49.590Z,100637.65
2019-06-01T17:49:25.139Z,100637.22
2019-06-01T17:51:04.391Z,100631.31
2019-06-01T17:52:40.376Z,100627.44
2019-06-01T17:54:16.837Z,100628.77
2019-06-01T17:55:52.363Z,100631.14
2019-06-01T17:57:28.661Z,100632.12
2019-06-01T17:59:05.362Z,100628.22
2019-06-01T18:00:42.387Z,100630.25
2019-06-01T18:02:18.109Z,100635.25
2019-06-01T18:03:54.446Z,100636.81
2019-06-01T18:05:30.315Z,100632.09
2019-06-01T18:07:07.903Z,100630.02
2019-06-01T18:08:43.612Z,100628.36
2019-06-01T18:10:20.102Z,100630.73
2019-06-01T18:11:55.656Z,100628.88
2019-06-01T18:13:31.958Z,100624.77
2019-06-01T18:15:08.387Z,100631.40
2019-06-01T18:16:45.663Z,100624.68
2019-06-01T18:18:21.182Z,100630.50
2019-06-01T18:19:57.508Z,100632.29
2019-06-01T18:21:33.535Z,100628.17